Time;durP1;ratioP1;P1;durP2;ratioP2;P2;SDS_P1;SDS_P2;PMS_P1;PMS_P2;Temp;Humidity;BMP_temperature;BMP_pressure;BME280_temperature;BME280_humidity;BME280_pressure;Samples;Min_cycle;Max_cycle;Signal;HPM_P1;HPM_P2
2021/10/08 00:00:49;;;;;;;14.03;13.03;;;10.20;99.90;;;;;;4858846;29;20264;-78
2021/10/08 00:03:16;;;;;;;14.87;13.77;;;10.30;99.90;;;;;;4848029;29;20207;-77
2021/10/08 00:05:42;;;;;;;13.93;12.93;;;10.20;99.90;;;;;;4858875;29;20294;-78
2021/10/08 00:08:10;;;;;;;14.63;13.53;;;10.20;99.90;;;;;;4845965;29;20631;-78
2021/10/08 00:10:37;;;;;;;13.50;12.60;;;10.20;99.90;;;;;;4847469;29;20239;-77
2021/10/08 00:13:04;;;;;;;14.47;13.47;;;10.20;99.90;;;;;;4848025;29;20271;-77
2021/10/08 00:15:32;;;;;;;14.17;13.17;;;10.20;99.90;;;;;;4839946;29;20191;-78
2021/10/08 00:17:58;;;;;;;14.30;13.10;;;10.30;99.90;;;;;;4847544;29;20780;-77
2021/10/08 00:20:25;;;;;;;14.47;13.23;;;10.30;99.90;;;;;;4845593;29;20628;-78
2021/10/08 00:22:52;;;;;;;15.23;14.03;;;10.30;99.90;;;;;;4840749;29;20600;-77
2021/10/08 00:25:20;;;;;;;14.50;13.40;;;10.20;99.90;;;;;;4845871;29;20202;-78
2021/10/08 00:27:47;;;;;;;14.50;13.33;;;10.10;99.90;;;;;;4845795;29;20619;-78
2021/10/08 00:30:14;;;;;;;14.87;13.87;;;10.10;99.90;;;;;;4844759;29;20222;-78
2021/10/08 00:32:41;;;;;;;14.40;13.30;;;10.00;99.90;;;;;;4846597;29;20206;-78
2021/10/08 00:35:08;;;;;;;14.83;13.73;;;10.00;99.90;;;;;;4859915;29;20228;-78
2021/10/08 00:37:36;;;;;;;14.47;13.47;;;10.00;99.90;;;;;;4844188;29;20222;-78
2021/10/08 00:40:05;;;;;;;14.37;13.27;;;9.90;99.90;;;;;;4859069;29;20199;-77
2021/10/08 00:42:34;;;;;;;15.23;14.13;;;9.90;99.90;;;;;;4847040;29;20214;-78
2021/10/08 00:45:01;;;;;;;14.90;13.80;;;9.80;99.90;;;;;;4843155;29;20202;-78
2021/10/08 00:47:28;;;;;;;14.67;13.57;;;9.80;99.90;;;;;;4843081;29;20222;-78
2021/10/08 00:49:55;;;;;;;14.03;13.03;;;9.80;99.90;;;;;;4843748;29;20199;-77
2021/10/08 00:52:22;;;;;;;14.27;13.27;;;9.80;99.90;;;;;;4845620;29;20309;-78
2021/10/08 00:54:49;;;;;;;14.83;13.77;;;9.80;99.90;;;;;;4846085;29;20194;-78
2021/10/08 00:57:16;;;;;;;15.90;14.70;;;9.80;99.90;;;;;;4844468;29;20275;-77
2021/10/08 00:59:44;;;;;;;15.50;14.30;;;9.90;99.90;;;;;;4845191;29;20218;-77
2021/10/08 01:02:11;;;;;;;14.53;13.43;;;9.90;99.90;;;;;;4846986;29;20230;-77
2021/10/08 01:04:37;;;;;;;15.33;14.23;;;9.90;99.90;;;;;;4843567;29;20251;-77
2021/10/08 01:07:04;;;;;;;14.57;13.47;;;9.90;99.90;;;;;;4842355;29;20235;-78
2021/10/08 01:09:31;;;;;;;14.23;13.23;;;9.90;99.90;;;;;;4844907;29;20210;-77
2021/10/08 01:11:58;;;;;;;15.17;13.97;;;9.80;99.90;;;;;;4856143;29;20482;-77
2021/10/08 01:14:27;;;;;;;14.90;13.80;;;9.80;99.90;;;;;;4859169;29;20721;-78
2021/10/08 01:16:58;;;;;;;14.60;13.60;;;9.80;99.90;;;;;;4844450;29;20616;-78
2021/10/08 01:19:26;;;;;;;13.07;12.17;;;9.70;99.90;;;;;;4843585;29;20205;-78
2021/10/08 01:21:59;;;;;;;14.63;13.53;;;9.70;99.90;;;;;;4845914;29;20230;-77
2021/10/08 01:24:27;;;;;;;15.03;13.90;;;9.60;99.90;;;;;;4837377;29;20226;-77
2021/10/08 01:26:56;;;;;;;13.77;12.77;;;9.50;99.90;;;;;;4827148;29;20227;-77
2021/10/08 01:29:25;;;;;;;13.97;12.97;;;9.40;99.90;;;;;;4842980;29;20199;-78
2021/10/08 01:31:51;;;;;;;14.00;12.90;;;9.40;99.90;;;;;;4843680;29;20218;-77
2021/10/08 01:34:19;;;;;;;14.37;13.27;;;9.30;99.90;;;;;;4846109;29;20209;-77
2021/10/08 01:36:53;;;;;;;14.60;13.47;;;9.20;99.90;;;;;;4837930;29;20234;-77
2021/10/08 01:39:21;;;;;;;14.03;12.83;;;9.20;99.90;;;;;;4856809;29;20264;-77
2021/10/08 01:41:49;;;;;;;14.53;13.43;;;9.10;99.90;;;;;;4844026;29;20232;-77
2021/10/08 01:44:21;;;;;;;14.20;13.20;;;9.10;99.90;;;;;;4842277;29;20237;-78
2021/10/08 01:46:50;;;;;;;13.90;12.87;;;9.00;99.90;;;;;;4842274;29;20223;-77
2021/10/08 01:49:17;;;;;;;14.33;13.33;;;9.00;99.90;;;;;;4838119;29;20612;-78
2021/10/08 01:51:44;;;;;;;14.50;13.50;;;8.90;99.90;;;;;;4855516;29;20237;-78
2021/10/08 01:54:12;;;;;;;14.70;13.60;;;8.80;99.90;;;;;;4856897;29;20293;-78
2021/10/08 01:56:44;;;;;;;14.73;13.57;;;8.80;99.90;;;;;;4859915;29;20226;-77
2021/10/08 01:59:11;;;;;;;15.70;14.40;;;8.70;99.90;;;;;;4843734;29;20217;-77
2021/10/08 02:01:39;;;;;;;14.80;13.70;;;8.70;99.90;;;;;;4851772;29;20202;-78
2021/10/08 02:04:14;;;;;;;15.10;13.67;;;8.60;99.90;;;;;;4841277;29;20691;-77
2021/10/08 02:06:41;;;;;;;14.63;13.53;;;8.60;99.90;;;;;;4842198;29;20218;-77
2021/10/08 02:09:10;;;;;;;15.70;14.30;;;8.50;99.90;;;;;;4853947;29;20584;-77
2021/10/08 02:11:40;;;;;;;15.47;14.27;;;8.50;99.90;;;;;;4850585;29;20210;-77
2021/10/08 02:14:08;;;;;;;16.03;14.83;;;8.40;99.90;;;;;;4844129;29;20549;-77
2021/10/08 02:16:36;;;;;;;15.93;14.73;;;8.30;99.90;;;;;;4844015;29;20234;-77
2021/10/08 02:19:07;;;;;;;15.07;13.97;;;8.30;99.90;;;;;;4840447;29;20208;-77
2021/10/08 02:21:38;;;;;;;16.10;14.90;;;8.20;99.90;;;;;;4842016;29;20249;-78
2021/10/08 02:24:07;;;;;;;15.97;14.43;;;8.20;99.90;;;;;;4858333;29;20599;-77
2021/10/08 02:26:38;;;;;;;15.67;14.47;;;8.20;99.90;;;;;;4859388;29;20233;-77
2021/10/08 02:29:07;;;;;;;15.50;14.33;;;8.10;99.90;;;;;;4840946;29;20744;-78
2021/10/08 02:31:35;;;;;;;15.50;14.30;;;8.00;99.90;;;;;;4841749;29;20221;-78
2021/10/08 02:34:04;;;;;;;16.27;14.97;;;8.00;99.90;;;;;;4842927;29;20213;-77
2021/10/08 02:36:31;;;;;;;16.63;15.33;;;8.00;99.90;;;;;;4855759;29;20228;-77
2021/10/08 02:38:57;;;;;;;17.13;15.83;;;8.00;99.90;;;;;;4843208;29;20209;-77
2021/10/08 02:41:26;;;;;;;16.73;15.33;;;7.90;99.90;;;;;;4841530;29;20582;-77
2021/10/08 02:43:52;;;;;;;16.60;15.30;;;8.00;99.90;;;;;;4839397;29;20209;-77
2021/10/08 02:46:21;;;;;;;16.80;15.60;;;7.90;99.90;;;;;;4838259;29;20223;-82
2021/10/08 02:48:47;;;;;;;15.03;13.93;;;8.00;99.90;;;;;;4842243;29;20211;-79
2021/10/08 02:51:17;;;;;;;16.33;15.13;;;8.00;99.90;;;;;;4843664;29;20230;-80
2021/10/08 02:53:44;;;;;;;17.20;15.90;;;7.90;99.90;;;;;;4843671;29;20295;-80
2021/10/08 02:56:11;;;;;;;16.43;15.13;;;7.90;99.90;;;;;;4846533;29;20238;-79
2021/10/08 02:58:38;;;;;;;16.57;15.17;;;7.80;99.90;;;;;;4845548;29;20208;-79
2021/10/08 03:01:05;;;;;;;15.80;14.57;;;7.80;99.90;;;;;;4845467;29;20199;-80
2021/10/08 03:03:33;;;;;;;16.20;14.80;;;7.70;99.90;;;;;;4867082;29;20208;-80
2021/10/08 03:06:00;;;;;;;16.00;14.80;;;7.70;99.90;;;;;;4859578;29;20235;-80
2021/10/08 03:08:27;;;;;;;15.63;14.33;;;7.60;99.90;;;;;;4858770;29;20210;-79
2021/10/08 03:10:54;;;;;;;16.80;15.60;;;7.50;99.90;;;;;;4857566;29;20204;-80
2021/10/08 03:13:21;;;;;;;17.00;15.60;;;7.50;99.90;;;;;;4860629;29;20196;-80
2021/10/08 03:15:50;;;;;;;17.53;16.23;;;7.50;99.90;;;;;;4856835;29;20235;-80
2021/10/08 03:18:17;;;;;;;16.73;15.43;;;7.50;99.90;;;;;;4854099;29;20212;-80
2021/10/08 03:20:46;;;;;;;16.57;15.37;;;7.50;99.90;;;;;;4845480;29;21313;-80
2021/10/08 03:23:12;;;;;;;17.13;15.90;;;7.50;99.90;;;;;;4854533;29;20290;-80
2021/10/08 03:25:39;;;;;;;16.67;15.47;;;7.50;99.90;;;;;;4861003;29;20215;-81
2021/10/08 03:28:07;;;;;;;18.43;16.97;;;7.50;99.90;;;;;;4847477;29;20235;-80
2021/10/08 03:30:34;;;;;;;17.60;16.20;;;7.50;99.90;;;;;;4845827;29;20204;-81
2021/10/08 03:33:01;;;;;;;17.90;16.50;;;7.50;99.90;;;;;;4845800;29;20243;-85
2021/10/08 03:35:29;;;;;;;16.83;15.63;;;7.50;99.90;;;;;;4846067;29;20212;-80
2021/10/08 03:38:03;;;;;;;18.07;16.63;;;7.50;99.90;;;;;;4843872;29;20226;-80
2021/10/08 03:40:31;;;;;;;17.47;16.17;;;7.50;99.90;;;;;;4840074;29;20199;-82
2021/10/08 03:43:01;;;;;;;16.90;15.60;;;7.50;99.90;;;;;;4845017;29;20732;-81
2021/10/08 03:45:34;;;;;;;19.33;17.23;;;7.50;99.90;;;;;;4846096;29;20270;-80
2021/10/08 03:48:18;;;;;;;17.27;15.73;;;7.50;99.90;;;;;;4858178;29;20235;-78
2021/10/08 03:50:45;;;;;;;16.80;15.50;;;7.50;99.90;;;;;;4858717;29;20218;-80
2021/10/08 03:53:13;;;;;;;16.80;15.37;;;7.60;99.90;;;;;;4845428;29;20246;-80
2021/10/08 03:55:41;;;;;;;18.10;16.60;;;7.50;99.90;;;;;;4845681;29;20211;-81
2021/10/08 03:58:08;;;;;;;17.27;15.97;;;7.60;99.90;;;;;;4847006;29;20206;-81
2021/10/08 04:00:34;;;;;;;17.80;16.47;;;7.60;99.90;;;;;;4845639;29;20207;-81
2021/10/08 04:03:10;;;;;;;17.37;15.97;;;7.50;99.90;;;;;;4844395;29;20204;-81
2021/10/08 04:05:37;;;;;;;17.03;15.73;;;7.50;99.90;;;;;;4845695;29;20211;-80
2021/10/08 04:08:05;;;;;;;18.10;16.63;;;7.50;99.90;;;;;;4840481;29;20315;-81
2021/10/08 04:10:33;;;;;;;17.27;16.07;;;7.50;99.90;;;;;;4841437;29;20207;-80
2021/10/08 04:13:00;;;;;;;17.07;15.77;;;7.50;99.90;;;;;;4843649;29;20220;-80
2021/10/08 04:15:28;;;;;;;18.17;16.77;;;7.50;99.90;;;;;;4842084;29;20295;-79
2021/10/08 04:17:55;;;;;;;17.47;16.17;;;7.50;99.90;;;;;;4841793;29;20238;-80
2021/10/08 04:20:22;;;;;;;18.27;16.87;;;7.50;99.90;;;;;;4858111;29;20216;-80
2021/10/08 04:22:50;;;;;;;19.40;17.80;;;7.50;99.90;;;;;;4844192;29;20195;-82
2021/10/08 04:25:19;;;;;;;19.70;18.00;;;7.60;99.90;;;;;;4854230;29;20674;-81
2021/10/08 04:27:48;;;;;;;21.27;19.37;;;7.60;99.90;;;;;;4844563;29;20220;-81
2021/10/08 04:30:15;;;;;;;20.00;18.50;;;7.60;99.90;;;;;;4841907;29;20686;-81
2021/10/08 04:32:44;;;;;;;20.03;18.33;;;7.70;99.90;;;;;;4857077;29;20610;-81
2021/10/08 04:35:12;;;;;;;19.47;17.97;;;7.70;99.90;;;;;;4843524;29;20289;-81
2021/10/08 04:37:39;;;;;;;20.37;18.67;;;7.80;99.90;;;;;;4841488;29;20227;-82
2021/10/08 04:40:09;;;;;;;19.87;18.27;;;7.80;99.90;;;;;;4841568;29;20264;-81
2021/10/08 04:42:36;;;;;;;19.47;17.97;;;7.90;99.90;;;;;;4841355;29;20201;-80
2021/10/08 04:45:06;;;;;;;19.43;17.80;;;7.90;99.90;;;;;;4854836;29;20210;-80
2021/10/08 04:47:33;;;;;;;19.73;18.03;;;7.90;99.90;;;;;;4841781;29;20283;-80
2021/10/08 04:50:01;;;;;;;20.07;18.57;;;8.00;99.90;;;;;;4841085;29;20205;-80
2021/10/08 04:52:33;;;;;;;18.77;17.37;;;8.00;99.90;;;;;;4841462;29;20716;-80
2021/10/08 04:55:01;;;;;;;18.33;16.93;;;8.10;99.90;;;;;;4844613;29;20223;-82
2021/10/08 04:57:28;;;;;;;19.07;17.67;;;8.20;99.90;;;;;;4848977;29;20228;-81
2021/10/08 04:59:54;;;;;;;19.30;17.90;;;8.20;99.90;;;;;;4841422;29;20223;-80
2021/10/08 05:02:23;;;;;;;19.33;17.83;;;8.20;99.90;;;;;;4846004;29;20557;-81
2021/10/08 05:04:50;;;;;;;18.83;17.43;;;8.10;99.90;;;;;;4850191;29;20638;-80
2021/10/08 05:07:17;;;;;;;19.27;17.87;;;8.10;99.90;;;;;;4855152;29;20315;-80
2021/10/08 05:09:44;;;;;;;19.40;17.83;;;8.10;99.90;;;;;;4851714;29;20212;-80
2021/10/08 05:12:12;;;;;;;20.00;18.40;;;8.00;99.90;;;;;;4854594;29;20223;-80
2021/10/08 05:14:38;;;;;;;19.80;18.20;;;8.00;99.90;;;;;;4852412;29;20211;-80
2021/10/08 05:17:05;;;;;;;19.83;18.43;;;8.00;99.90;;;;;;4840300;29;20236;-80
2021/10/08 05:19:34;;;;;;;19.30;17.90;;;8.00;99.90;;;;;;4868484;29;20264;-81
2021/10/08 05:22:10;;;;;;;20.13;18.53;;;8.00;99.90;;;;;;4849948;29;20632;-80
2021/10/08 05:24:37;;;;;;;20.07;18.47;;;8.00;99.90;;;;;;4848678;29;20252;-80
2021/10/08 05:27:05;;;;;;;20.80;19.10;;;8.00;99.90;;;;;;4842267;29;20224;-80
2021/10/08 05:29:32;;;;;;;19.70;18.13;;;8.00;99.90;;;;;;4845226;29;20709;-79
2021/10/08 05:32:00;;;;;;;20.73;19.13;;;8.00;99.90;;;;;;4841899;29;20707;-79
2021/10/08 05:34:27;;;;;;;20.07;18.57;;;8.00;99.90;;;;;;4842141;29;20207;-78
2021/10/08 05:36:56;;;;;;;21.40;19.57;;;8.00;99.90;;;;;;4857354;29;20247;-79
2021/10/08 05:39:23;;;;;;;20.70;19.10;;;8.00;99.90;;;;;;4841302;29;20204;-81
2021/10/08 05:41:50;;;;;;;20.10;18.43;;;8.10;99.90;;;;;;4838840;29;20257;-80
2021/10/08 05:44:18;;;;;;;21.33;19.53;;;8.00;99.90;;;;;;4841141;29;20274;-79
2021/10/08 05:46:46;;;;;;;20.70;19.00;;;8.10;99.90;;;;;;4840656;29;20236;-79
2021/10/08 05:49:13;;;;;;;20.67;19.07;;;8.20;99.90;;;;;;4841340;29;20293;-79
2021/10/08 05:51:40;;;;;;;20.27;18.77;;;8.30;99.90;;;;;;4842550;29;20205;-79
2021/10/08 05:54:09;;;;;;;20.00;18.50;;;8.30;99.90;;;;;;4858170;29;20215;-79
2021/10/08 05:56:36;;;;;;;20.70;19.10;;;8.30;99.90;;;;;;4857594;29;20228;-80
2021/10/08 05:59:03;;;;;;;20.37;18.87;;;8.50;99.90;;;;;;4853783;29;20209;-79
2021/10/08 06:01:30;;;;;;;20.47;19.03;;;8.60;99.90;;;;;;4840206;29;20217;-79
2021/10/08 06:03:58;;;;;;;20.40;18.80;;;8.60;99.90;;;;;;4840784;29;20207;-80
2021/10/08 06:06:25;;;;;;;21.83;20.07;;;8.60;99.90;;;;;;4840344;29;20243;-80
2021/10/08 06:08:55;;;;;;;20.73;19.07;;;8.70;99.90;;;;;;4841565;29;20233;-80
2021/10/08 06:11:23;;;;;;;20.67;18.97;;;8.80;99.90;;;;;;4840566;29;20661;-78
2021/10/08 06:13:50;;;;;;;23.97;21.83;;;8.70;99.90;;;;;;4856226;29;20316;-80
2021/10/08 06:16:17;;;;;;;17.57;16.00;;;8.80;99.90;;;;;;4839068;29;20328;-82
2021/10/08 06:18:44;;;;;;;19.47;17.97;;;8.80;99.90;;;;;;4840183;29;20307;-81
2021/10/08 06:21:11;;;;;;;20.13;18.53;;;8.90;99.90;;;;;;4841283;29;20218;-80
2021/10/08 06:23:38;;;;;;;20.47;18.87;;;8.90;99.90;;;;;;4842565;29;20234;-80
2021/10/08 06:26:05;;;;;;;19.77;18.17;;;8.90;99.90;;;;;;4842890;29;20240;-80
2021/10/08 06:28:34;;;;;;;10.33;9.33;;;9.00;99.90;;;;;;4842055;29;20664;-80
2021/10/08 06:31:03;;;;;;;11.70;10.13;;;9.00;99.90;;;;;;4855922;29;20554;-81
2021/10/08 06:33:33;;;;;;;10.63;9.53;;;9.00;99.90;;;;;;4841463;29;20681;-80
2021/10/08 06:36:00;;;;;;;12.77;10.23;;;9.10;99.90;;;;;;4840500;29;20305;-80
2021/10/08 06:38:28;;;;;;;11.37;9.33;;;9.20;99.90;;;;;;4847658;29;20695;-81
2021/10/08 06:40:55;;;;;;;11.73;10.13;;;9.20;99.90;;;;;;4840771;29;20224;-82
2021/10/08 06:43:23;;;;;;;13.87;10.93;;;9.30;99.90;;;;;;4843771;29;20296;-80
2021/10/08 06:46:05;;;;;;;14.57;11.53;;;9.30;99.90;;;;;;4835897;29;20278;-81
2021/10/08 06:48:32;;;;;;;12.67;11.37;;;9.50;99.90;;;;;;4842261;29;20201;-80
2021/10/08 06:50:59;;;;;;;13.20;10.90;;;9.50;99.90;;;;;;4855698;29;20243;-80
2021/10/08 06:53:26;;;;;;;12.67;10.73;;;9.50;99.90;;;;;;4839853;29;20674;-82
2021/10/08 06:55:53;;;;;;;12.43;10.83;;;9.60;99.90;;;;;;4840081;29;20237;-81
2021/10/08 06:58:40;;;;;;;11.63;9.47;;;9.60;99.90;;;;;;4839936;29;20736;-80
2021/10/08 07:01:08;;;;;;;19.37;17.67;;;9.70;99.90;;;;;;4839989;29;20691;-80
2021/10/08 07:03:35;;;;;;;19.37;17.87;;;9.70;99.90;;;;;;4838550;29;20209;-82
2021/10/08 07:06:02;;;;;;;19.17;17.67;;;9.80;99.90;;;;;;4844767;29;20241;-80
2021/10/08 07:08:29;;;;;;;19.30;17.80;;;10.00;99.90;;;;;;4839555;29;20235;-82
2021/10/08 07:10:56;;;;;;;14.50;13.20;;;10.10;99.90;;;;;;4839752;29;20290;-82
2021/10/08 07:13:23;;;;;;;14.97;13.67;;;10.20;99.90;;;;;;4855117;29;20276;-80
2021/10/08 07:15:50;;;;;;;18.60;17.20;;;10.20;99.90;;;;;;4848209;29;20225;-80
2021/10/08 07:18:23;;;;;;;16.47;15.07;;;10.30;99.90;;;;;;4836494;29;20294;-81
2021/10/08 07:20:50;;;;;;;15.23;11.47;;;10.50;99.90;;;;;;4839886;29;20262;-81
2021/10/08 07:23:17;;;;;;;13.70;12.40;;;10.60;99.90;;;;;;4840485;29;20210;-81
2021/10/08 07:25:44;;;;;;;12.93;11.50;;;10.70;99.90;;;;;;4854751;29;20221;-81
2021/10/08 07:28:11;;;;;;;15.37;13.97;;;10.70;99.90;;;;;;4839457;29;20206;-81
2021/10/08 07:30:38;;;;;;;11.03;9.93;;;10.80;99.90;;;;;;4839570;29;20247;-81
2021/10/08 07:33:04;;;;;;;10.90;9.80;;;11.00;99.90;;;;;;4839287;29;20283;-81
2021/10/08 07:35:33;;;;;;;13.30;10.93;;;11.30;99.90;;;;;;4839737;29;20263;-80
2021/10/08 07:37:59;;;;;;;14.33;13.13;;;11.30;99.90;;;;;;4840521;29;20232;-81
2021/10/08 07:40:26;;;;;;;11.53;9.80;;;11.00;99.90;;;;;;4841483;29;20248;-82
2021/10/08 07:42:53;;;;;;;12.50;10.67;;;11.30;99.90;;;;;;4844889;29;20195;-81
2021/10/08 07:45:20;;;;;;;15.80;14.50;;;11.40;99.90;;;;;;4843203;29;20272;-80
2021/10/08 07:47:47;;;;;;;11.07;9.87;;;11.80;99.90;;;;;;4844574;29;20288;-84
2021/10/08 07:50:14;;;;;;;11.63;10.10;;;12.20;99.90;;;;;;4848888;29;20203;-81
2021/10/08 07:52:43;;;;;;;10.90;9.80;;;12.20;99.90;;;;;;4845331;29;20272;-81
2021/10/08 07:55:11;;;;;;;10.87;9.77;;;12.10;99.90;;;;;;4855454;29;20656;-82
2021/10/08 07:57:40;;;;;;;11.03;9.90;;;12.10;99.90;;;;;;4857090;29;20226;-80
2021/10/08 08:00:09;;;;;;;10.40;9.40;;;12.00;99.90;;;;;;4842922;29;20213;-81
2021/10/08 08:02:39;;;;;;;13.37;12.17;;;12.20;99.90;;;;;;4845363;29;20267;-81
2021/10/08 08:05:06;;;;;;;15.27;12.63;;;12.40;99.90;;;;;;4845811;29;20212;-80
2021/10/08 08:07:33;;;;;;;13.17;9.67;;;12.70;99.90;;;;;;4843879;29;20224;-82
2021/10/08 08:10:01;;;;;;;13.00;11.80;;;13.10;99.90;;;;;;4843975;29;20205;-81
2021/10/08 08:12:28;;;;;;;13.93;11.00;;;13.00;99.90;;;;;;4847621;29;20229;-81
2021/10/08 08:14:54;;;;;;;21.53;19.70;;;12.70;99.90;;;;;;4844937;29;20279;-80
2021/10/08 08:17:21;;;;;;;15.00;11.10;;;12.60;99.90;;;;;;4843795;29;20225;-84
2021/10/08 08:19:48;;;;;;;17.40;15.77;;;12.50;99.90;;;;;;4844353;29;20201;-79
2021/10/08 08:22:15;;;;;;;19.90;18.30;;;12.50;99.90;;;;;;4842684;29;20217;-81
2021/10/08 08:24:42;;;;;;;19.53;17.70;;;12.50;99.90;;;;;;4842392;29;20261;-81
2021/10/08 08:27:10;;;;;;;13.10;11.63;;;12.30;99.90;;;;;;4844797;29;20255;-81
2021/10/08 08:29:37;;;;;;;15.27;13.83;;;12.20;99.90;;;;;;4842238;29;20274;-81
2021/10/08 08:32:04;;;;;;;10.77;9.67;;;12.20;99.90;;;;;;4850922;29;20213;-81
2021/10/08 08:34:31;;;;;;;15.03;13.57;;;12.10;99.90;;;;;;4850355;29;20281;-81
2021/10/08 08:36:58;;;;;;;10.53;9.17;;;12.10;99.90;;;;;;4843532;29;20639;-81
2021/10/08 08:39:25;;;;;;;10.47;9.37;;;12.20;99.90;;;;;;4843001;29;20261;-83
2021/10/08 08:41:52;;;;;;;11.93;9.17;;;12.20;99.90;;;;;;4857830;29;20215;-81
2021/10/08 08:44:20;;;;;;;10.67;9.53;;;12.30;99.90;;;;;;4844681;29;20206;-81
2021/10/08 08:46:47;;;;;;;10.23;9.23;;;12.50;99.90;;;;;;4854610;29;20231;-81
2021/10/08 08:49:13;;;;;;;11.07;9.63;;;12.50;99.90;;;;;;4847180;29;20207;-81
2021/10/08 08:51:41;;;;;;;13.70;12.30;;;12.50;99.90;;;;;;4845152;29;20234;-83
2021/10/08 08:54:08;;;;;;;13.67;11.00;;;12.40;99.90;;;;;;4843157;29;20693;-77
2021/10/08 08:56:36;;;;;;;12.97;11.60;;;12.40;99.90;;;;;;4843178;29;20294;-78
2021/10/08 08:59:05;;;;;;;12.23;10.70;;;12.10;99.90;;;;;;4841796;29;20672;-77
2021/10/08 09:01:34;;;;;;;11.67;10.13;;;12.20;99.90;;;;;;4842268;29;20209;-78
2021/10/08 09:04:03;;;;;;;9.97;8.97;;;12.40;99.90;;;;;;4841881;29;20213;-79
2021/10/08 09:06:32;;;;;;;20.83;19.03;;;12.60;99.90;;;;;;4841812;29;20290;-78
2021/10/08 09:08:58;;;;;;;12.80;10.37;;;12.70;99.90;;;;;;4841321;29;20691;-78
2021/10/08 09:11:37;;;;;;;12.10;10.73;;;12.70;99.90;;;;;;4842235;29;20193;-78
2021/10/08 09:14:15;;;;;;;14.33;12.70;;;13.20;99.90;;;;;;4855787;29;20219;-78
2021/10/08 09:17:11;;;;;;;20.97;19.17;;;13.90;99.90;;;;;;4842362;29;20222;-78
2021/10/08 09:20:01;;;;;;;11.90;10.80;;;14.00;99.90;;;;;;4841099;29;20209;-79
2021/10/08 09:22:50;;;;;;;15.70;14.37;;;13.90;99.90;;;;;;4841269;29;20278;-77
2021/10/08 09:25:21;;;;;;;14.93;13.60;;;13.90;99.90;;;;;;4842529;29;20598;-79
2021/10/08 09:27:50;;;;;;;12.93;11.57;;;14.00;99.90;;;;;;4846967;29;20287;-79
2021/10/08 09:30:18;;;;;;;12.60;11.30;;;13.80;99.90;;;;;;4846991;29;20695;-77
2021/10/08 09:32:48;;;;;;;13.27;10.60;;;14.00;99.90;;;;;;4841223;29;20214;-76
2021/10/08 09:35:16;;;;;;;14.73;13.43;;;14.20;99.90;;;;;;4841932;29;20752;-76
2021/10/08 09:37:45;;;;;;;13.17;11.93;;;14.10;99.90;;;;;;4841973;29;20246;-78
2021/10/08 09:40:30;;;;;;;14.73;13.23;;;14.10;99.90;;;;;;4840046;29;20217;-76
2021/10/08 09:43:07;;;;;;;12.63;9.27;;;14.20;99.90;;;;;;4850957;29;20210;-76
2021/10/08 09:45:40;;;;;;;16.70;15.33;;;14.30;99.90;;;;;;4855097;29;20194;-76
2021/10/08 09:48:10;;;;;;;17.20;15.90;;;14.40;99.90;;;;;;4858026;29;20262;-77
2021/10/08 09:50:37;;;;;;;12.13;11.03;;;14.40;99.90;;;;;;4859674;29;20210;-76
2021/10/08 09:53:13;;;;;;;10.80;9.13;;;14.50;99.90;;;;;;4841388;29;20210;-77
2021/10/08 09:55:40;;;;;;;12.17;10.50;;;14.30;99.90;;;;;;4840145;29;20239;-77
2021/10/08 09:58:08;;;;;;;17.80;16.10;;;14.30;99.90;;;;;;4849556;29;20239;-76
2021/10/08 10:00:41;;;;;;;17.53;16.13;;;14.30;99.90;;;;;;4841329;29;20206;-76
2021/10/08 10:03:10;;;;;;;10.57;9.37;;;14.40;99.90;;;;;;4839547;29;20204;-76
2021/10/08 10:05:37;;;;;;;11.63;10.43;;;14.40;99.90;;;;;;4858386;29;20241;-78
2021/10/08 10:08:05;;;;;;;12.07;9.27;;;14.60;99.90;;;;;;4850080;29;20226;-80
2021/10/08 10:10:34;;;;;;;11.53;9.03;;;14.70;99.90;;;;;;4846242;29;20665;-78
2021/10/08 10:13:02;;;;;;;15.07;13.67;;;14.80;99.90;;;;;;4844429;29;20745;-80
2021/10/08 10:15:29;;;;;;;16.53;15.27;;;15.00;99.90;;;;;;4843879;29;20210;-79
2021/10/08 10:17:57;;;;;;;18.30;16.90;;;15.00;99.90;;;;;;4844473;29;20223;-78
2021/10/08 10:20:25;;;;;;;19.20;17.70;;;15.10;99.90;;;;;;4842718;29;20698;-80
2021/10/08 10:22:54;;;;;;;9.17;8.27;;;15.00;99.90;;;;;;4836797;29;20223;-76
2021/10/08 10:25:21;;;;;;;11.33;9.23;;;15.00;99.90;;;;;;4840946;29;20242;-76
2021/10/08 10:27:48;;;;;;;8.83;7.63;;;15.10;99.90;;;;;;4842722;29;20228;-77
2021/10/08 10:30:18;;;;;;;9.37;8.43;;;15.30;99.90;;;;;;4839716;29;20738;-76
2021/10/08 10:32:47;;;;;;;17.83;16.37;;;15.30;99.90;;;;;;4840070;29;20285;-76
2021/10/08 10:35:45;;;;;;;13.67;11.97;;;15.40;99.90;;;;;;4845162;29;20225;-79
2021/10/08 10:38:26;;;;;;;17.10;15.70;;;15.60;99.90;;;;;;4852547;29;20270;-78
2021/10/08 10:41:25;;;;;;;15.20;13.90;;;15.50;99.90;;;;;;4856884;29;20210;-77
2021/10/08 10:44:14;;;;;;;12.47;11.47;;;15.50;99.90;;;;;;4840296;29;20622;-77
2021/10/08 10:46:47;;;;;;;11.67;10.67;;;15.60;99.90;;;;;;4839342;29;20628;-78
2021/10/08 10:52:28;;;;;;;18.33;16.93;;;15.80;99.90;;;;;;4835841;29;20191;-78
2021/10/08 10:55:02;;;;;;;18.07;16.73;;;15.80;99.90;;;;;;4840323;29;20209;-77
2021/10/08 10:57:49;;;;;;;17.67;16.20;;;15.60;99.90;;;;;;4844347;29;20232;-76
2021/10/08 11:00:25;;;;;;;19.23;17.67;;;15.40;99.90;;;;;;4862910;29;20206;-78
2021/10/08 11:03:11;;;;;;;13.97;9.50;;;15.30;99.90;;;;;;4857785;29;20201;-79
2021/10/08 11:05:40;;;;;;;9.73;7.47;;;15.30;99.90;;;;;;4846785;29;20214;-78
2021/10/08 11:08:14;;;;;;;11.10;9.10;;;15.30;99.90;;;;;;4856807;29;20209;-76
2021/10/08 11:10:44;;;;;;;13.90;9.40;;;15.40;99.90;;;;;;4839752;29;20210;-76
2021/10/08 11:13:27;;;;;;;12.30;11.30;;;15.50;99.90;;;;;;4839544;29;20245;-76
2021/10/08 11:15:57;;;;;;;12.47;11.37;;;15.50;99.90;;;;;;4844194;29;20206;-76
2021/10/08 11:18:38;;;;;;;12.60;11.40;;;15.60;99.90;;;;;;4853302;29;20215;-76
2021/10/08 11:21:05;;;;;;;11.33;8.20;;;15.70;99.90;;;;;;4839089;29;20218;-76
2021/10/08 11:23:37;;;;;;;15.87;14.57;;;15.60;99.90;;;;;;4844373;29;20214;-76
2021/10/08 11:26:08;;;;;;;11.43;7.37;;;15.70;99.90;;;;;;4842908;29;20231;-76
2021/10/08 11:28:36;;;;;;;10.30;8.67;;;15.80;99.90;;;;;;4843542;29;20756;-76
2021/10/08 11:31:05;;;;;;;8.57;7.73;;;15.80;99.90;;;;;;4844332;29;20719;-76
2021/10/08 11:33:34;;;;;;;15.93;14.60;;;15.80;99.90;;;;;;4843939;29;20218;-76
2021/10/08 11:36:15;;;;;;;15.63;14.47;;;16.10;99.90;;;;;;4844201;29;20232;-76
2021/10/08 11:38:44;;;;;;;10.13;8.63;;;16.10;99.90;;;;;;4843764;29;20253;-77
2021/10/08 11:41:16;;;;;;;10.43;7.50;;;16.10;99.90;;;;;;4842744;29;20218;-76
2021/10/08 11:43:43;;;;;;;11.40;8.90;;;16.20;99.90;;;;;;4842594;29;20203;-76
2021/10/08 11:46:21;;;;;;;13.27;7.57;;;16.10;99.90;;;;;;4844111;29;20783;-78
2021/10/08 11:48:52;;;;;;;14.37;13.20;;;16.00;99.90;;;;;;4843690;29;20207;-76
2021/10/08 11:51:24;;;;;;;15.97;14.57;;;15.90;99.90;;;;;;4844010;29;20200;-76
2021/10/08 11:53:55;;;;;;;16.63;15.40;;;15.80;99.90;;;;;;4841788;29;20222;-78
2021/10/08 11:56:26;;;;;;;16.27;14.97;;;15.60;99.90;;;;;;4842261;29;20670;-77
2021/10/08 11:58:55;;;;;;;13.90;12.50;;;15.70;99.90;;;;;;4844415;29;20300;-79
2021/10/08 12:01:23;;;;;;;16.40;14.90;;;15.80;99.90;;;;;;4855060;29;20206;-77
2021/10/08 12:03:51;;;;;;;11.17;9.97;;;15.90;99.90;;;;;;4857870;29;20207;-77
2021/10/08 12:06:22;;;;;;;9.83;8.40;;;16.00;99.90;;;;;;4843842;29;20284;-76
2021/10/08 12:08:57;;;;;;;9.93;7.90;;;16.00;99.90;;;;;;4843693;29;20194;-76
2021/10/08 12:11:27;;;;;;;12.67;11.47;;;16.10;99.90;;;;;;4843833;29;20203;-76
2021/10/08 12:13:57;;;;;;;10.27;8.93;;;16.20;99.90;;;;;;4854726;29;20215;-77
2021/10/08 12:16:26;;;;;;;13.60;12.20;;;16.20;99.90;;;;;;4840086;29;20619;-76
2021/10/08 12:18:55;;;;;;;10.43;9.33;;;16.10;99.90;;;;;;4847840;29;20209;-79
2021/10/08 12:21:30;;;;;;;9.90;8.80;;;16.10;99.90;;;;;;4862353;29;20334;-78
2021/10/08 12:24:01;;;;;;;11.73;10.07;;;16.10;99.90;;;;;;4861905;29;20216;-77
2021/10/08 12:26:30;;;;;;;10.10;9.10;;;15.90;99.90;;;;;;4843285;29;20744;-76
2021/10/08 12:28:58;;;;;;;9.90;8.47;;;16.10;99.90;;;;;;4841632;29;20268;-75
2021/10/08 12:31:47;;;;;;;13.87;11.87;;;16.00;99.90;;;;;;4843149;29;20260;-77
2021/10/08 12:34:14;;;;;;;12.17;10.20;;;16.00;99.90;;;;;;4843243;29;20218;-76
2021/10/08 12:36:41;;;;;;;17.57;16.00;;;16.00;99.90;;;;;;4844697;29;20300;-76
2021/10/08 12:39:11;;;;;;;15.70;14.40;;;15.70;99.90;;;;;;4842857;29;20672;-76
2021/10/08 12:41:45;;;;;;;17.17;15.67;;;15.90;99.90;;;;;;4841986;29;20355;-76
2021/10/08 12:44:17;;;;;;;17.67;16.23;;;15.80;99.90;;;;;;4843338;29;20694;-75
2021/10/08 12:46:55;;;;;;;16.80;15.30;;;15.80;99.90;;;;;;4854642;29;20726;-76